Vila do Carmo do Tocantins, Brazil
Current Conditions -  °F | °C
As of 6:30 PM on Friday 31 Oct 2014 (Local Time) from SBTU Reporting Station
Broken Clouds Broken Clouds  
Wind Chill: 84°   Ceiling: 2000
Heat Index: 92°   Visibility: 6mi
Dew Point: 75°   Wind: 0mph
Humidity: 74%   Direction: NA
Pressure: 29.88"   Gusts: NA
Location:  2.45°S, 49.44°W
Report Text: SBTU 312130Z 00000KT 9999 BKN020 FEW022TCU 29/24 Q1012
Loading
Personal Weather Stations






























Interactive Weather Map
Tropical Storm Tracking
New forecast layout! Learn more

10-Day Weather Forecast

Advertisements
Track Severe Weather on mobile